sensor_id;sensor_type;location;lat;lon;timestamp;temperature;humidity
36990;DHT22;22898;52.102;5.776;2023-07-09T00:00:01;31.30;75.80
36990;DHT22;22898;52.102;5.776;2023-07-09T00:02:27;31.20;76.10
36990;DHT22;22898;52.102;5.776;2023-07-09T00:04:52;31.20;76.10
36990;DHT22;22898;52.102;5.776;2023-07-09T00:07:32;31.20;75.80
36990;DHT22;22898;52.102;5.776;2023-07-09T00:09:59;31.30;76.00
36990;DHT22;22898;52.102;5.776;2023-07-09T00:12:25;31.30;75.80
36990;DHT22;22898;52.102;5.776;2023-07-09T00:14:51;31.20;76.20
36990;DHT22;22898;52.102;5.776;2023-07-09T00:17:28;31.20;76.30
36990;DHT22;22898;52.102;5.776;2023-07-09T00:19:54;31.10;76.40
36990;DHT22;22898;52.102;5.776;2023-07-09T00:22:20;31.20;76.40
36990;DHT22;22898;52.102;5.776;2023-07-09T00:24:48;31.20;76.10
36990;DHT22;22898;52.102;5.776;2023-07-09T00:27:18;31.20;76.10
36990;DHT22;22898;52.102;5.776;2023-07-09T00:29:44;31.10;76.40
36990;DHT22;22898;52.102;5.776;2023-07-09T00:32:13;31.10;76.70
36990;DHT22;22898;52.102;5.776;2023-07-09T00:34:42;31.00;76.80
36990;DHT22;22898;52.102;5.776;2023-07-09T00:37:11;31.00;76.90
36990;DHT22;22898;52.102;5.776;2023-07-09T00:39:38;31.10;77.00
36990;DHT22;22898;52.102;5.776;2023-07-09T00:42:07;31.00;77.10
36990;DHT22;22898;52.102;5.776;2023-07-09T00:44:35;31.00;77.10
36990;DHT22;22898;52.102;5.776;2023-07-09T00:49:38;30.80;77.70
36990;DHT22;22898;52.102;5.776;2023-07-09T00:52:31;30.80;77.70
36990;DHT22;22898;52.102;5.776;2023-07-09T00:55:03;30.80;77.60
36990;DHT22;22898;52.102;5.776;2023-07-09T00:57:30;30.80;77.80
36990;DHT22;22898;52.102;5.776;2023-07-09T01:00:02;30.80;78.10
36990;DHT22;22898;52.102;5.776;2023-07-09T01:02:33;30.70;78.00
36990;DHT22;22898;52.102;5.776;2023-07-09T01:05:01;30.70;78.00
36990;DHT22;22898;52.102;5.776;2023-07-09T01:07:30;30.70;78.00
36990;DHT22;22898;52.102;5.776;2023-07-09T01:09:56;30.60;78.40
36990;DHT22;22898;52.102;5.776;2023-07-09T01:12:22;30.50;78.50
36990;DHT22;22898;52.102;5.776;2023-07-09T01:14:50;30.50;78.80
36990;DHT22;22898;52.102;5.776;2023-07-09T01:17:17;30.50;78.90
36990;DHT22;22898;52.102;5.776;2023-07-09T01:19:48;30.50;78.50
36990;DHT22;22898;52.102;5.776;2023-07-09T01:22:16;30.40;78.60
36990;DHT22;22898;52.102;5.776;2023-07-09T01:25:01;30.30;79.20
36990;DHT22;22898;52.102;5.776;2023-07-09T01:27:37;30.20;79.40
36990;DHT22;22898;52.102;5.776;2023-07-09T01:30:12;30.20;79.60
36990;DHT22;22898;52.102;5.776;2023-07-09T01:32:40;30.20;79.40
36990;DHT22;22898;52.102;5.776;2023-07-09T01:35:10;30.10;79.80
36990;DHT22;22898;52.102;5.776;2023-07-09T01:37:37;30.00;80.00
36990;DHT22;22898;52.102;5.776;2023-07-09T01:40:05;30.10;79.80
36990;DHT22;22898;52.102;5.776;2023-07-09T01:42:32;30.10;79.70
36990;DHT22;22898;52.102;5.776;2023-07-09T01:44:57;30.10;79.70
36990;DHT22;22898;52.102;5.776;2023-07-09T01:47:23;30.10;79.70
36990;DHT22;22898;52.102;5.776;2023-07-09T01:49:50;30.10;79.90
36990;DHT22;22898;52.102;5.776;2023-07-09T01:52:17;30.00;80.10
36990;DHT22;22898;52.102;5.776;2023-07-09T01:54:45;30.00;80.30
36990;DHT22;22898;52.102;5.776;2023-07-09T01:59:52;29.80;81.10
36990;DHT22;22898;52.102;5.776;2023-07-09T02:02:19;29.70;81.40
36990;DHT22;22898;52.102;5.776;2023-07-09T02:04:50;29.70;81.20
36990;DHT22;22898;52.102;5.776;2023-07-09T02:07:16;29.80;81.20
36990;DHT22;22898;52.102;5.776;2023-07-09T02:09:42;29.90;81.10
36990;DHT22;22898;52.102;5.776;2023-07-09T02:12:09;29.80;81.10
36990;DHT22;22898;52.102;5.776;2023-07-09T02:14:35;29.80;81.30
36990;DHT22;22898;52.102;5.776;2023-07-09T02:17:00;29.80;81.30
36990;DHT22;22898;52.102;5.776;2023-07-09T02:19:27;29.70;81.20
36990;DHT22;22898;52.102;5.776;2023-07-09T02:21:53;29.80;81.40
36990;DHT22;22898;52.102;5.776;2023-07-09T02:24:18;29.70;81.40
36990;DHT22;22898;52.102;5.776;2023-07-09T02:26:44;29.70;81.40
36990;DHT22;22898;52.102;5.776;2023-07-09T02:29:10;29.80;81.30
36990;DHT22;22898;52.102;5.776;2023-07-09T02:31:36;29.70;81.20
36990;DHT22;22898;52.102;5.776;2023-07-09T02:34:01;29.70;81.20
36990;DHT22;22898;52.102;5.776;2023-07-09T02:36:28;29.70;81.30
36990;DHT22;22898;52.102;5.776;2023-07-09T02:38:54;29.70;81.30
36990;DHT22;22898;52.102;5.776;2023-07-09T02:41:19;29.70;81.40
36990;DHT22;22898;52.102;5.776;2023-07-09T02:43:45;29.70;81.40
36990;DHT22;22898;52.102;5.776;2023-07-09T02:46:10;29.60;81.30
36990;DHT22;22898;52.102;5.776;2023-07-09T02:48:36;29.50;81.60
36990;DHT22;22898;52.102;5.776;2023-07-09T02:51:01;29.50;81.40
36990;DHT22;22898;52.102;5.776;2023-07-09T02:53:27;29.60;81.40
36990;DHT22;22898;52.102;5.776;2023-07-09T02:55:53;29.50;81.30
36990;DHT22;22898;52.102;5.776;2023-07-09T02:58:18;29.50;81.30
36990;DHT22;22898;52.102;5.776;2023-07-09T03:00:44;29.50;81.20
36990;DHT22;22898;52.102;5.776;2023-07-09T03:03:17;29.40;81.20
36990;DHT22;22898;52.102;5.776;2023-07-09T03:05:45;29.40;81.50
36990;DHT22;22898;52.102;5.776;2023-07-09T03:08:10;29.30;81.60
36990;DHT22;22898;52.102;5.776;2023-07-09T03:10:36;29.40;81.60
36990;DHT22;22898;52.102;5.776;2023-07-09T03:13:01;29.30;81.50
36990;DHT22;22898;52.102;5.776;2023-07-09T03:15:27;29.30;81.50
36990;DHT22;22898;52.102;5.776;2023-07-09T03:17:52;29.40;81.60
36990;DHT22;22898;52.102;5.776;2023-07-09T03:20:18;29.30;81.90
36990;DHT22;22898;52.102;5.776;2023-07-09T03:22:43;29.30;82.00
36990;DHT22;22898;52.102;5.776;2023-07-09T03:25:09;29.20;82.20
36990;DHT22;22898;52.102;5.776;2023-07-09T03:27:35;29.20;82.20
36990;DHT22;22898;52.102;5.776;2023-07-09T03:30:00;29.20;82.00
36990;DHT22;22898;52.102;5.776;2023-07-09T03:32:26;29.20;82.10
36990;DHT22;22898;52.102;5.776;2023-07-09T03:34:51;29.10;82.20
36990;DHT22;22898;52.102;5.776;2023-07-09T03:37:18;29.20;82.30
36990;DHT22;22898;52.102;5.776;2023-07-09T03:39:45;29.10;82.40
36990;DHT22;22898;52.102;5.776;2023-07-09T03:42:11;29.10;82.30
36990;DHT22;22898;52.102;5.776;2023-07-09T03:44:36;29.00;82.30
36990;DHT22;22898;52.102;5.776;2023-07-09T03:47:03;29.00;82.20
36990;DHT22;22898;52.102;5.776;2023-07-09T03:49:29;29.10;82.30
36990;DHT22;22898;52.102;5.776;2023-07-09T03:51:54;29.10;82.20
36990;DHT22;22898;52.102;5.776;2023-07-09T03:54:20;29.20;82.20
36990;DHT22;22898;52.102;5.776;2023-07-09T03:56:45;29.20;82.20
36990;DHT22;22898;52.102;5.776;2023-07-09T03:59:11;29.20;82.40
36990;DHT22;22898;52.102;5.776;2023-07-09T04:01:37;29.20;82.10
36990;DHT22;22898;52.102;5.776;2023-07-09T04:04:02;29.20;81.60
36990;DHT22;22898;52.102;5.776;2023-07-09T04:06:28;29.10;82.20
36990;DHT22;22898;52.102;5.776;2023-07-09T04:08:54;29.00;82.40
36990;DHT22;22898;52.102;5.776;2023-07-09T04:11:19;29.20;82.50
36990;DHT22;22898;52.102;5.776;2023-07-09T04:13:45;29.30;82.00
36990;DHT22;22898;52.102;5.776;2023-07-09T04:16:11;29.30;82.00
36990;DHT22;22898;52.102;5.776;2023-07-09T04:18:36;29.30;82.10
36990;DHT22;22898;52.102;5.776;2023-07-09T04:21:02;29.20;82.20
36990;DHT22;22898;52.102;5.776;2023-07-09T04:23:27;29.30;82.20
36990;DHT22;22898;52.102;5.776;2023-07-09T04:25:53;29.30;82.30
36990;DHT22;22898;52.102;5.776;2023-07-09T04:28:19;29.30;82.40
36990;DHT22;22898;52.102;5.776;2023-07-09T04:30:49;29.40;82.40
36990;DHT22;22898;52.102;5.776;2023-07-09T04:33:16;29.40;82.10
36990;DHT22;22898;52.102;5.776;2023-07-09T04:35:44;29.40;82.20
36990;DHT22;22898;52.102;5.776;2023-07-09T04:38:10;29.60;82.20
36990;DHT22;22898;52.102;5.776;2023-07-09T04:40:35;29.60;82.20
36990;DHT22;22898;52.102;5.776;2023-07-09T04:43:01;29.60;82.20
36990;DHT22;22898;52.102;5.776;2023-07-09T04:45:26;29.70;82.20
36990;DHT22;22898;52.102;5.776;2023-07-09T04:47:52;29.80;82.30
36990;DHT22;22898;52.102;5.776;2023-07-09T04:50:18;29.80;82.30
36990;DHT22;22898;52.102;5.776;2023-07-09T04:52:43;29.80;82.40
36990;DHT22;22898;52.102;5.776;2023-07-09T04:55:09;29.80;82.40
36990;DHT22;22898;52.102;5.776;2023-07-09T04:57:35;29.80;82.70
36990;DHT22;22898;52.102;5.776;2023-07-09T05:00:01;29.90;82.30
36990;DHT22;22898;52.102;5.776;2023-07-09T05:02:30;29.80;82.70
36990;DHT22;22898;52.102;5.776;2023-07-09T05:04:56;29.80;83.10
36990;DHT22;22898;52.102;5.776;2023-07-09T05:07:21;29.90;83.30
36990;DHT22;22898;52.102;5.776;2023-07-09T05:09:47;29.90;83.50
36990;DHT22;22898;52.102;5.776;2023-07-09T05:12:13;29.90;83.60
36990;DHT22;22898;52.102;5.776;2023-07-09T05:14:39;30.00;83.70
36990;DHT22;22898;52.102;5.776;2023-07-09T05:17:05;30.10;84.50
36990;DHT22;22898;52.102;5.776;2023-07-09T05:19:31;30.10;83.50
36990;DHT22;22898;52.102;5.776;2023-07-09T05:21:57;30.20;83.50
36990;DHT22;22898;52.102;5.776;2023-07-09T05:24:22;30.30;83.40
36990;DHT22;22898;52.102;5.776;2023-07-09T05:26:48;30.30;83.50
36990;DHT22;22898;52.102;5.776;2023-07-09T05:29:14;30.40;83.30
36990;DHT22;22898;52.102;5.776;2023-07-09T05:31:39;30.40;83.50
36990;DHT22;22898;52.102;5.776;2023-07-09T05:34:07;30.50;83.70
36990;DHT22;22898;52.102;5.776;2023-07-09T05:36:33;30.50;83.90
36990;DHT22;22898;52.102;5.776;2023-07-09T05:38:59;30.70;84.00
36990;DHT22;22898;52.102;5.776;2023-07-09T05:41:24;30.80;83.90
36990;DHT22;22898;52.102;5.776;2023-07-09T05:43:51;30.90;83.50
36990;DHT22;22898;52.102;5.776;2023-07-09T05:46:17;31.40;82.30
36990;DHT22;22898;52.102;5.776;2023-07-09T05:48:43;31.90;81.00
36990;DHT22;22898;52.102;5.776;2023-07-09T05:51:09;32.30;80.00
36990;DHT22;22898;52.102;5.776;2023-07-09T05:53:35;32.50;79.00
36990;DHT22;22898;52.102;5.776;2023-07-09T05:56:01;32.60;78.80
36990;DHT22;22898;52.102;5.776;2023-07-09T05:58:26;32.70;78.90
36990;DHT22;22898;52.102;5.776;2023-07-09T06:00:53;32.70;78.80
36990;DHT22;22898;52.102;5.776;2023-07-09T06:03:20;32.80;78.70
36990;DHT22;22898;52.102;5.776;2023-07-09T06:05:47;32.80;78.60
36990;DHT22;22898;52.102;5.776;2023-07-09T06:08:15;32.80;78.40
36990;DHT22;22898;52.102;5.776;2023-07-09T06:10:59;32.90;78.40
36990;DHT22;22898;52.102;5.776;2023-07-09T06:13:26;33.00;77.70
36990;DHT22;22898;52.102;5.776;2023-07-09T06:15:53;33.10;77.30
36990;DHT22;22898;52.102;5.776;2023-07-09T06:18:20;33.20;77.40
36990;DHT22;22898;52.102;5.776;2023-07-09T06:20:48;33.30;77.50
36990;DHT22;22898;52.102;5.776;2023-07-09T06:23:14;33.40;77.50
36990;DHT22;22898;52.102;5.776;2023-07-09T06:25:39;33.40;77.90
36990;DHT22;22898;52.102;5.776;2023-07-09T06:28:05;33.50;77.00
36990;DHT22;22898;52.102;5.776;2023-07-09T06:30:31;33.60;77.10
36990;DHT22;22898;52.102;5.776;2023-07-09T06:32:56;33.70;76.70
36990;DHT22;22898;52.102;5.776;2023-07-09T06:35:22;33.80;76.30
36990;DHT22;22898;52.102;5.776;2023-07-09T06:37:47;33.90;76.60
36990;DHT22;22898;52.102;5.776;2023-07-09T06:40:13;34.00;76.70
36990;DHT22;22898;52.102;5.776;2023-07-09T06:42:38;34.00;77.00
36990;DHT22;22898;52.102;5.776;2023-07-09T06:45:05;34.10;77.20
36990;DHT22;22898;52.102;5.776;2023-07-09T06:47:30;34.20;77.40
36990;DHT22;22898;52.102;5.776;2023-07-09T06:49:56;34.20;77.60
36990;DHT22;22898;52.102;5.776;2023-07-09T06:52:22;34.30;77.60
36990;DHT22;22898;52.102;5.776;2023-07-09T06:54:47;34.40;77.90
36990;DHT22;22898;52.102;5.776;2023-07-09T06:57:14;34.50;78.00
36990;DHT22;22898;52.102;5.776;2023-07-09T06:59:41;34.40;78.00
36990;DHT22;22898;52.102;5.776;2023-07-09T07:02:08;34.50;78.20
36990;DHT22;22898;52.102;5.776;2023-07-09T07:04:33;34.50;78.80
36990;DHT22;22898;52.102;5.776;2023-07-09T07:06:59;34.60;78.00
36990;DHT22;22898;52.102;5.776;2023-07-09T07:09:24;34.70;78.10
36990;DHT22;22898;52.102;5.776;2023-07-09T07:11:50;34.80;78.50
36990;DHT22;22898;52.102;5.776;2023-07-09T07:14:16;34.90;78.90
36990;DHT22;22898;52.102;5.776;2023-07-09T07:16:41;34.90;77.40
36990;DHT22;22898;52.102;5.776;2023-07-09T07:19:07;34.90;77.20
36990;DHT22;22898;52.102;5.776;2023-07-09T07:21:32;35.10;77.20
36990;DHT22;22898;52.102;5.776;2023-07-09T07:23:58;35.30;76.50
36990;DHT22;22898;52.102;5.776;2023-07-09T07:26:24;35.30;76.40
36990;DHT22;22898;52.102;5.776;2023-07-09T07:28:49;35.50;76.10
36990;DHT22;22898;52.102;5.776;2023-07-09T07:31:16;35.60;75.60
36990;DHT22;22898;52.102;5.776;2023-07-09T07:33:42;35.80;75.50
36990;DHT22;22898;52.102;5.776;2023-07-09T07:36:09;35.80;74.90
36990;DHT22;22898;52.102;5.776;2023-07-09T07:38:34;35.90;74.40
36990;DHT22;22898;52.102;5.776;2023-07-09T07:41:01;35.90;74.00
36990;DHT22;22898;52.102;5.776;2023-07-09T07:43:27;36.10;72.80
36990;DHT22;22898;52.102;5.776;2023-07-09T07:45:53;35.90;73.20
36990;DHT22;22898;52.102;5.776;2023-07-09T07:48:19;35.90;72.40
36990;DHT22;22898;52.102;5.776;2023-07-09T07:50:45;35.90;72.70
36990;DHT22;22898;52.102;5.776;2023-07-09T07:53:13;36.10;72.20
36990;DHT22;22898;52.102;5.776;2023-07-09T07:55:40;35.90;71.20
36990;DHT22;22898;52.102;5.776;2023-07-09T07:58:06;36.10;72.70
36990;DHT22;22898;52.102;5.776;2023-07-09T08:00:31;36.30;71.70
36990;DHT22;22898;52.102;5.776;2023-07-09T08:02:57;36.50;69.50
36990;DHT22;22898;52.102;5.776;2023-07-09T08:05:23;36.50;69.10
36990;DHT22;22898;52.102;5.776;2023-07-09T08:07:49;36.50;70.70
36990;DHT22;22898;52.102;5.776;2023-07-09T08:10:15;36.70;69.40
36990;DHT22;22898;52.102;5.776;2023-07-09T08:12:41;36.60;70.20
36990;DHT22;22898;52.102;5.776;2023-07-09T08:15:07;36.70;69.30
36990;DHT22;22898;52.102;5.776;2023-07-09T08:17:32;36.90;69.40
36990;DHT22;22898;52.102;5.776;2023-07-09T08:19:58;36.70;68.60
36990;DHT22;22898;52.102;5.776;2023-07-09T08:22:24;36.90;68.30
36990;DHT22;22898;52.102;5.776;2023-07-09T08:24:50;37.10;68.10
36990;DHT22;22898;52.102;5.776;2023-07-09T08:27:16;37.20;67.60
36990;DHT22;22898;52.102;5.776;2023-07-09T08:29:42;37.20;67.90
36990;DHT22;22898;52.102;5.776;2023-07-09T08:32:09;37.50;66.30
36990;DHT22;22898;52.102;5.776;2023-07-09T08:34:37;37.40;65.30
36990;DHT22;22898;52.102;5.776;2023-07-09T08:37:03;37.70;66.30
36990;DHT22;22898;52.102;5.776;2023-07-09T08:39:29;37.70;64.20
36990;DHT22;22898;52.102;5.776;2023-07-09T08:42:03;38.00;65.70
36990;DHT22;22898;52.102;5.776;2023-07-09T08:50:15;38.00;64.80
36990;DHT22;22898;52.102;5.776;2023-07-09T08:52:43;38.30;64.50
36990;DHT22;22898;52.102;5.776;2023-07-09T08:55:15;38.40;62.00
36990;DHT22;22898;52.102;5.776;2023-07-09T08:57:45;37.90;62.80
36990;DHT22;22898;52.102;5.776;2023-07-09T09:02:52;38.30;63.10
36990;DHT22;22898;52.102;5.776;2023-07-09T09:05:22;38.40;63.50
36990;DHT22;22898;52.102;5.776;2023-07-09T09:10:56;38.40;63.50
36990;DHT22;22898;52.102;5.776;2023-07-09T09:13:25;38.50;61.00
36990;DHT22;22898;52.102;5.776;2023-07-09T09:15:54;38.20;62.70
36990;DHT22;22898;52.102;5.776;2023-07-09T09:18:26;38.30;62.00
36990;DHT22;22898;52.102;5.776;2023-07-09T09:21:01;38.50;62.20
36990;DHT22;22898;52.102;5.776;2023-07-09T09:23:40;38.80;61.10
36990;DHT22;22898;52.102;5.776;2023-07-09T09:26:18;38.90;63.60
36990;DHT22;22898;52.102;5.776;2023-07-09T09:28:46;39.10;60.50
36990;DHT22;22898;52.102;5.776;2023-07-09T09:31:12;38.90;59.70
36990;DHT22;22898;52.102;5.776;2023-07-09T09:33:43;39.20;61.10
36990;DHT22;22898;52.102;5.776;2023-07-09T09:36:18;39.30;59.90
36990;DHT22;22898;52.102;5.776;2023-07-09T09:38:44;39.20;60.20
36990;DHT22;22898;52.102;5.776;2023-07-09T09:41:22;39.20;59.20
36990;DHT22;22898;52.102;5.776;2023-07-09T09:43:51;39.10;59.20
36990;DHT22;22898;52.102;5.776;2023-07-09T09:46:19;39.10;59.70
36990;DHT22;22898;52.102;5.776;2023-07-09T09:48:47;39.00;58.40
36990;DHT22;22898;52.102;5.776;2023-07-09T09:51:13;38.80;59.70
36990;DHT22;22898;52.102;5.776;2023-07-09T09:53:45;39.00;59.60
36990;DHT22;22898;52.102;5.776;2023-07-09T09:56:15;39.00;60.70
36990;DHT22;22898;52.102;5.776;2023-07-09T09:58:43;39.10;58.80
36990;DHT22;22898;52.102;5.776;2023-07-09T10:01:15;39.30;58.60
36990;DHT22;22898;52.102;5.776;2023-07-09T10:03:41;39.40;57.80
36990;DHT22;22898;52.102;5.776;2023-07-09T10:11:49;39.00;57.00
36990;DHT22;22898;52.102;5.776;2023-07-09T10:17:39;39.10;57.90
36990;DHT22;22898;52.102;5.776;2023-07-09T10:20:29;39.50;57.20
36990;DHT22;22898;52.102;5.776;2023-07-09T10:29:08;39.90;57.00
36990;DHT22;22898;52.102;5.776;2023-07-09T10:34:40;39.70;55.10
36990;DHT22;22898;52.102;5.776;2023-07-09T10:39:49;39.40;55.40
36990;DHT22;22898;52.102;5.776;2023-07-09T10:42:30;39.60;56.00
36990;DHT22;22898;52.102;5.776;2023-07-09T10:45:02;39.90;56.20
36990;DHT22;22898;52.102;5.776;2023-07-09T10:47:33;40.00;55.50
36990;DHT22;22898;52.102;5.776;2023-07-09T10:50:02;39.60;55.10
36990;DHT22;22898;52.102;5.776;2023-07-09T10:52:33;39.70;55.40
36990;DHT22;22898;52.102;5.776;2023-07-09T10:58:25;40.50;54.30
36990;DHT22;22898;52.102;5.776;2023-07-09T11:00:54;40.60;55.40
36990;DHT22;22898;52.102;5.776;2023-07-09T11:03:40;40.80;54.70
36990;DHT22;22898;52.102;5.776;2023-07-09T11:06:19;40.80;54.30
36990;DHT22;22898;52.102;5.776;2023-07-09T11:08:48;40.80;53.30
36990;DHT22;22898;52.102;5.776;2023-07-09T11:13:54;40.50;52.10
36990;DHT22;22898;52.102;5.776;2023-07-09T11:16:31;39.80;54.10
36990;DHT22;22898;52.102;5.776;2023-07-09T11:19:02;40.00;55.30
36990;DHT22;22898;52.102;5.776;2023-07-09T11:21:28;40.10;55.60
36990;DHT22;22898;52.102;5.776;2023-07-09T11:23:59;40.30;55.00
36990;DHT22;22898;52.102;5.776;2023-07-09T11:26:32;40.70;53.60
36990;DHT22;22898;52.102;5.776;2023-07-09T11:31:37;41.40;53.40
36990;DHT22;22898;52.102;5.776;2023-07-09T11:34:16;41.40;54.30
36990;DHT22;22898;52.102;5.776;2023-07-09T11:39:29;41.50;54.00
36990;DHT22;22898;52.102;5.776;2023-07-09T11:41:55;41.60;53.90
36990;DHT22;22898;52.102;5.776;2023-07-09T11:44:23;41.80;53.80
36990;DHT22;22898;52.102;5.776;2023-07-09T11:47:00;41.90;53.40
36990;DHT22;22898;52.102;5.776;2023-07-09T11:49:54;42.00;53.60
36990;DHT22;22898;52.102;5.776;2023-07-09T11:57:40;42.00;53.70
36990;DHT22;22898;52.102;5.776;2023-07-09T12:00:07;41.30;54.60
36990;DHT22;22898;52.102;5.776;2023-07-09T12:02:33;41.50;54.50
36990;DHT22;22898;52.102;5.776;2023-07-09T12:05:00;41.80;53.90
36990;DHT22;22898;52.102;5.776;2023-07-09T12:07:29;41.80;54.30
36990;DHT22;22898;52.102;5.776;2023-07-09T12:09:55;41.80;54.10
36990;DHT22;22898;52.102;5.776;2023-07-09T12:12:26;42.10;53.40
36990;DHT22;22898;52.102;5.776;2023-07-09T12:14:53;42.20;52.60
36990;DHT22;22898;52.102;5.776;2023-07-09T12:17:23;42.30;53.20
36990;DHT22;22898;52.102;5.776;2023-07-09T12:19:51;42.40;53.00
36990;DHT22;22898;52.102;5.776;2023-07-09T12:22:20;42.50;51.90
36990;DHT22;22898;52.102;5.776;2023-07-09T12:24:48;42.30;51.90
36990;DHT22;22898;52.102;5.776;2023-07-09T12:27:23;42.20;53.00
36990;DHT22;22898;52.102;5.776;2023-07-09T12:29:52;42.10;54.10
36990;DHT22;22898;52.102;5.776;2023-07-09T12:32:18;42.00;53.90
36990;DHT22;22898;52.102;5.776;2023-07-09T12:34:49;42.00;53.40
36990;DHT22;22898;52.102;5.776;2023-07-09T12:37:15;42.20;53.50
36990;DHT22;22898;52.102;5.776;2023-07-09T12:39:41;42.30;53.20
36990;DHT22;22898;52.102;5.776;2023-07-09T12:42:37;42.30;52.90
36990;DHT22;22898;52.102;5.776;2023-07-09T12:45:03;42.30;53.20
36990;DHT22;22898;52.102;5.776;2023-07-09T12:47:29;42.50;52.80
36990;DHT22;22898;52.102;5.776;2023-07-09T12:50:14;42.60;52.20
36990;DHT22;22898;52.102;5.776;2023-07-09T12:52:48;42.40;52.30
36990;DHT22;22898;52.102;5.776;2023-07-09T12:55:22;42.40;52.50
36990;DHT22;22898;52.102;5.776;2023-07-09T12:57:48;42.20;53.40
36990;DHT22;22898;52.102;5.776;2023-07-09T13:00:15;42.40;53.90
36990;DHT22;22898;52.102;5.776;2023-07-09T13:02:41;41.90;53.60
36990;DHT22;22898;52.102;5.776;2023-07-09T13:05:18;42.00;53.90
36990;DHT22;22898;52.102;5.776;2023-07-09T13:07:48;42.10;53.10
36990;DHT22;22898;52.102;5.776;2023-07-09T13:10:32;42.10;53.90
36990;DHT22;22898;52.102;5.776;2023-07-09T13:13:04;41.90;54.20
36990;DHT22;22898;52.102;5.776;2023-07-09T13:15:49;41.90;54.70
36990;DHT22;22898;52.102;5.776;2023-07-09T13:18:16;42.00;54.50
36990;DHT22;22898;52.102;5.776;2023-07-09T13:20:44;41.40;56.60
36990;DHT22;22898;52.102;5.776;2023-07-09T13:25:46;40.60;61.80
36990;DHT22;22898;52.102;5.776;2023-07-09T13:28:32;40.20;63.10
36990;DHT22;22898;52.102;5.776;2023-07-09T13:31:00;39.90;64.50
36990;DHT22;22898;52.102;5.776;2023-07-09T13:33:26;39.40;64.70
36990;DHT22;22898;52.102;5.776;2023-07-09T13:35:53;39.50;64.70
36990;DHT22;22898;52.102;5.776;2023-07-09T13:38:21;39.60;65.40
36990;DHT22;22898;52.102;5.776;2023-07-09T13:40:54;39.40;66.40
36990;DHT22;22898;52.102;5.776;2023-07-09T13:43:32;38.40;69.40
36990;DHT22;22898;52.102;5.776;2023-07-09T13:45:58;37.20;70.00
36990;DHT22;22898;52.102;5.776;2023-07-09T13:48:26;36.30;72.00
36990;DHT22;22898;52.102;5.776;2023-07-09T13:50:53;35.30;73.30
36990;DHT22;22898;52.102;5.776;2023-07-09T13:53:22;34.30;74.50
36990;DHT22;22898;52.102;5.776;2023-07-09T13:55:48;33.40;75.60
36990;DHT22;22898;52.102;5.776;2023-07-09T13:58:17;33.10;76.30
36990;DHT22;22898;52.102;5.776;2023-07-09T14:00:44;32.80;75.40
36990;DHT22;22898;52.102;5.776;2023-07-09T14:03:25;32.70;75.60
36990;DHT22;22898;52.102;5.776;2023-07-09T14:05:52;32.20;77.00
36990;DHT22;22898;52.102;5.776;2023-07-09T14:08:17;32.20;77.60
36990;DHT22;22898;52.102;5.776;2023-07-09T14:10:46;32.00;78.50
36990;DHT22;22898;52.102;5.776;2023-07-09T14:13:14;31.80;79.50
36990;DHT22;22898;52.102;5.776;2023-07-09T14:15:41;31.80;80.00
36990;DHT22;22898;52.102;5.776;2023-07-09T14:18:15;31.90;80.40
36990;DHT22;22898;52.102;5.776;2023-07-09T14:20:42;32.10;78.90
36990;DHT22;22898;52.102;5.776;2023-07-09T14:23:12;31.90;79.60
36990;DHT22;22898;52.102;5.776;2023-07-09T14:25:39;31.70;79.90
36990;DHT22;22898;52.102;5.776;2023-07-09T14:28:16;31.50;80.40
36990;DHT22;22898;52.102;5.776;2023-07-09T14:30:42;31.30;80.40
36990;DHT22;22898;52.102;5.776;2023-07-09T14:33:13;31.20;80.20
36990;DHT22;22898;52.102;5.776;2023-07-09T14:35:39;30.80;81.00
36990;DHT22;22898;52.102;5.776;2023-07-09T14:38:14;30.70;81.10
36990;DHT22;22898;52.102;5.776;2023-07-09T14:40:42;30.60;81.20
36990;DHT22;22898;52.102;5.776;2023-07-09T14:43:10;30.90;79.50
36990;DHT22;22898;52.102;5.776;2023-07-09T14:45:36;30.80;79.70
36990;DHT22;22898;52.102;5.776;2023-07-09T14:48:18;30.90;80.20
36990;DHT22;22898;52.102;5.776;2023-07-09T14:50:45;31.10;79.20
36990;DHT22;22898;52.102;5.776;2023-07-09T14:53:15;31.20;78.20
36990;DHT22;22898;52.102;5.776;2023-07-09T14:55:41;30.60;79.90
36990;DHT22;22898;52.102;5.776;2023-07-09T14:58:18;30.40;80.50
36990;DHT22;22898;52.102;5.776;2023-07-09T15:00:45;30.50;81.00
36990;DHT22;22898;52.102;5.776;2023-07-09T15:03:21;30.40;82.40
36990;DHT22;22898;52.102;5.776;2023-07-09T15:05:47;29.60;86.40
36990;DHT22;22898;52.102;5.776;2023-07-09T15:08:14;28.50;91.40
36990;DHT22;22898;52.102;5.776;2023-07-09T15:10:40;27.90;93.70
36990;DHT22;22898;52.102;5.776;2023-07-09T15:13:15;27.80;97.40
36990;DHT22;22898;52.102;5.776;2023-07-09T15:15:41;28.00;99.00
36990;DHT22;22898;52.102;5.776;2023-07-09T15:18:12;27.90;99.20
36990;DHT22;22898;52.102;5.776;2023-07-09T15:20:39;27.50;99.90
36990;DHT22;22898;52.102;5.776;2023-07-09T15:23:05;27.80;99.90
36990;DHT22;22898;52.102;5.776;2023-07-09T15:25:31;27.70;99.90
36990;DHT22;22898;52.102;5.776;2023-07-09T15:27:57;27.60;99.90
36990;DHT22;22898;52.102;5.776;2023-07-09T15:30:25;27.60;99.90
36990;DHT22;22898;52.102;5.776;2023-07-09T15:32:56;27.70;99.90
36990;DHT22;22898;52.102;5.776;2023-07-09T15:35:23;27.50;99.90
36990;DHT22;22898;52.102;5.776;2023-07-09T15:37:50;27.50;99.90
36990;DHT22;22898;52.102;5.776;2023-07-09T15:40:25;27.30;99.90
36990;DHT22;22898;52.102;5.776;2023-07-09T15:42:56;27.40;99.90
36990;DHT22;22898;52.102;5.776;2023-07-09T15:45:22;27.60;99.90
36990;DHT22;22898;52.102;5.776;2023-07-09T15:47:50;28.00;99.90
36990;DHT22;22898;52.102;5.776;2023-07-09T15:50:27;28.30;99.90
36990;DHT22;22898;52.102;5.776;2023-07-09T15:52:54;28.90;99.90
36990;DHT22;22898;52.102;5.776;2023-07-09T15:55:21;29.50;99.90
36990;DHT22;22898;52.102;5.776;2023-07-09T15:57:49;29.90;99.90
36990;DHT22;22898;52.102;5.776;2023-07-09T16:00:21;30.30;99.90
36990;DHT22;22898;52.102;5.776;2023-07-09T16:02:48;30.70;98.90
36990;DHT22;22898;52.102;5.776;2023-07-09T16:07:45;30.90;97.40
36990;DHT22;22898;52.102;5.776;2023-07-09T16:10:11;30.30;98.80
36990;DHT22;22898;52.102;5.776;2023-07-09T16:12:37;30.00;99.90
36990;DHT22;22898;52.102;5.776;2023-07-09T16:15:03;29.90;99.90
36990;DHT22;22898;52.102;5.776;2023-07-09T16:17:29;29.60;99.90
36990;DHT22;22898;52.102;5.776;2023-07-09T16:19:54;29.60;99.90
36990;DHT22;22898;52.102;5.776;2023-07-09T16:22:20;29.40;99.90
36990;DHT22;22898;52.102;5.776;2023-07-09T16:24:47;29.10;99.90
36990;DHT22;22898;52.102;5.776;2023-07-09T16:27:15;29.10;99.90
36990;DHT22;22898;52.102;5.776;2023-07-09T16:29:41;29.10;99.90
36990;DHT22;22898;52.102;5.776;2023-07-09T16:32:08;29.20;99.90
36990;DHT22;22898;52.102;5.776;2023-07-09T16:34:34;29.20;99.90